CheckWX is a tool to help pilots better visualize weather data.  It is not intended as a substitute for an official pre-flight weather briefing.

02:55:26 UTC

KCDJ METAR
Chillicothe Agri-Science Center Airport
Chillicothe, Missouri, USA
Current

1 hour ago

KCDJ 230152Z AUTO 35005KT 23/16 A3017 RMK AO1 SLP205 T02330156
Observed
Jul-23 @ 01:52 UTC
Wind
  • 350° at 5 KTS
Visibility
Temperature
23°C / 73°F
Dewpoint
16°C / 61°F
Humidity
65%
Altimeter
30.17" Hg
Pressure
1021.72 hPa
Previous

2 hours ago

KCDJ 230052Z AUTO VRB05KT 25/16 A3015 RMK AO1 SLP200 T02500156
Observed
Jul-23 @ 00:52 UTC
Wind
  • Variable at 5 KTS
Visibility
Temperature
25°C / 77°F
Dewpoint
16°C / 61°F
Humidity
57%
Altimeter
30.15" Hg
Pressure
1021.02 hPa
Previous

3 hours ago

KCDJ 222352Z AUTO VRB04KT 27/16 A3014 RMK AO1 SLP195 T02720156 10283 20261 55000
Observed
Jul-22 @ 23:52 UTC
Wind
  • Variable at 4 KTS
Visibility
Temperature
27°C / 81°F
Dewpoint
16°C / 61°F
Heat Index
28°C / 82°F
Humidity
51%
Altimeter
30.14" Hg
Pressure
1020.62 hPa